Latest Weather Observations for Gosford

IDN60901

Issued at 9:12 pm EDT Sunday 25 January 2015 (issued every 10 minutes, with the page automatically refreshed every 10 minutes)

About weather observations | Map of Sydney area stations | Latest observations for Sydney area | Other Formats
Station Details ID: 061425 Name: GOSFORD AWS Lat: -33.44 Lon: 151.36 Height: 7.0 m
Data from the previous 72 hours. | See also: Recent months at Gosford
Date/Time
EDT
Tmp

°C
App
Tmp
°C
Dew
Point
°C
Rel
Hum
%
Delta-T

°C
Wind Press
QNH
hPa
Press
MSL
hPa
Rain
since
9 am
mm
Dir
 
Spd
km/h
Gust
km/h
Spd
kts
Gust
kts
25/09:00pm 24.6 25.4 20.7 79 2.6 S 17 28 9 15 - - 0.0
25/08:30pm 24.8 24.9 20.3 76 2.9 S 20 44 11 24 - - 0.0
25/08:00pm 28.0 30.6 17.5 52 6.6 CALM 0 0 0 0 - - 0.0
25/07:30pm 28.8 30.1 17.0 49 7.4 ENE 6 11 3 6 - - 0.0
25/07:00pm 30.0 31.3 17.5 47 7.9 E 7 13 4 7 - - 0.0
25/06:30pm 30.6 31.6 17.7 46 8.2 ENE 9 15 5 8 - - 0.0
25/06:00pm 30.6 31.3 18.0 47 8.1 ENE 11 17 6 9 - - 0.0
25/05:30pm 30.7 30.7 18.1 47 8.1 E 15 19 8 10 - - 0.0
25/05:00pm 32.2 33.8 19.1 45 8.6 ENE 9 17 5 9 - - 0.0
25/04:30pm 32.2 33.2 19.5 47 8.3 E 13 20 7 11 - - 0.0
25/04:00pm 31.9 32.9 20.2 50 7.8 ENE 15 26 8 14 - - 0.0
25/03:30pm 32.1 32.4 19.7 48 8.2 ENE 17 26 9 14 - - 0.0
25/03:00pm 31.9 33.1 19.9 49 7.9 ESE 13 20 7 11 - - 0.0
25/02:30pm 31.8 32.4 19.4 47 8.1 E 15 22 8 12 - - 0.0
25/02:00pm 34.0 36.0 20.0 43 9.3 NNE 9 20 5 11 - - 0.0
25/01:30pm 33.0 35.5 19.8 45 8.7 SE 6 9 3 5 - - 0.0
25/01:00pm 32.5 35.1 20.4 49 8.1 SSE 7 9 4 5 - - 0.0
25/12:30pm 31.9 34.2 19.9 49 7.9 S 7 11 4 6 - - 0.0
25/12:00pm 31.6 34.1 20.2 50 7.6 S 7 11 4 6 - - 0.0
25/11:30am 30.5 32.8 19.8 52 7.0 S 7 11 4 6 - - 0.0
25/11:00am 29.9 32.0 19.3 53 6.9 S 7 9 4 5 - - 0.0
25/10:30am 29.6 32.8 20.5 58 6.0 S 4 7 2 4 - - 0.0
25/10:00am 28.7 31.6 19.9 59 5.8 ESE 4 9 2 5 - - 0.0
25/09:30am 28.2 31.8 20.5 63 5.1 NNE 2 4 1 2 - - 0.0
25/09:00am 26.5 29.6 20.3 68 4.1 NNW 4 6 2 3 - - 2.8
25/08:30am 25.3 28.5 19.7 71 3.6 SW 2 7 1 4 - - 2.8
25/08:00am 23.3 26.6 19.9 81 2.2 NW 2 6 1 3 - - 2.8
25/07:30am 22.8 26.8 20.5 87 1.5 CALM 0 0 0 0 - - 2.8
25/07:00am 21.5 24.8 20.0 91 1.0 SE 2 6 1 3 - - 2.8
25/06:30am 21.0 24.6 19.8 93 0.8 CALM 0 2 0 1 - - 2.8
25/06:00am 21.1 24.8 19.9 93 0.8 CALM 0 4 0 2 - - 2.8
25/05:30am 21.2 24.8 19.8 92 0.9 CALM 0 0 0 0 - - 2.8
25/05:00am 21.4 24.7 20.0 92 0.9 ENE 2 4 1 2 - - 2.8
25/04:30am 21.9 25.0 20.2 90 1.1 N 4 6 2 3 - - 2.8
25/04:00am 22.0 25.5 20.3 90 1.1 NW 2 4 1 2 - - 2.8
25/03:30am 21.8 25.3 20.4 92 0.9 WNW 2 7 1 4 - - 2.8
25/03:00am 22.2 26.3 20.7 91 1.0 CALM 0 0 0 0 - - 2.8
25/02:30am 22.6 26.1 20.3 87 1.5 N 2 9 1 5 - - 2.8
25/02:00am 22.8 25.6 20.5 87 1.5 NNW 6 11 3 6 - - 2.8
25/01:30am 23.0 24.8 21.1 89 1.2 NNW 13 20 7 11 - - 2.8
25/01:00am 22.8 26.1 21.4 92 0.9 NNE 6 11 3 6 - - 2.8
25/12:30am 22.8 27.4 21.8 94 0.7 CALM 0 4 0 2 - - 2.8
25/12:00am 22.9 26.3 21.7 93 0.8 NE 6 6 3 3 - - 2.8
 
Date/Time
EDT
Tmp

°C
App
Tmp
°C
Dew
Point
°C
Rel
Hum
%
Delta-T

°C
Wind Press
QNH
hPa
Press
MSL
hPa
Rain
since
9 am
mm
Dir
 
Spd
km/h
Gust
km/h
Spd
kts
Gust
kts
24/11:30pm 23.1 27.1 22.1 94 0.7 E 4 6 2 3 - - 2.8
24/11:00pm 23.2 27.2 22.0 93 0.8 NNE 4 7 2 4 - - 2.6
24/10:30pm 23.7 27.6 21.8 89 1.3 NE 4 4 2 2 - - 2.6
24/10:00pm 24.9 28.7 21.0 79 2.6 NNW 2 4 1 2 - - 0.0
24/09:30pm 24.7 28.1 21.0 80 2.4 NE 4 6 2 3 - - 0.0
24/09:00pm 24.7 28.0 20.8 79 2.6 NNE 4 9 2 5 - - 0.0
24/08:30pm 24.9 28.0 21.0 79 2.6 NNE 6 9 3 5 - - 0.0
24/08:00pm 24.9 27.7 20.8 78 2.7 NE 7 13 4 7 - - 0.0
24/07:30pm 25.1 27.4 20.6 76 2.9 NE 9 15 5 8 - - 0.0
24/07:00pm 25.3 27.1 20.3 74 3.3 ENE 11 17 6 9 - - 0.0
24/06:30pm 25.6 27.0 20.4 73 3.4 ENE 13 19 7 10 - - 0.0
24/06:00pm 26.2 26.2 19.8 68 4.2 ENE 19 28 10 15 - - 0.0
24/05:30pm 27.1 26.6 19.2 62 5.1 NE 20 35 11 19 - - 0.0
24/05:00pm 28.0 27.3 18.7 57 6.0 NE 20 30 11 16 - - 0.0
24/04:30pm 28.2 28.3 19.2 58 5.8 NE 17 28 9 15 - - 0.0
24/04:00pm 28.0 27.5 18.7 57 6.0 NE 19 30 10 16 - - 0.0
24/03:30pm 28.3 27.9 19.0 57 6.0 NE 19 30 10 16 - - 0.0
24/03:00pm 29.0 29.7 20.4 59 5.7 ENE 17 24 9 13 - - 0.0
24/02:30pm 29.1 29.6 20.0 58 6.0 NE 17 24 9 13 - - 0.0
24/02:00pm 29.0 30.0 21.0 62 5.3 E 17 30 9 16 - - 0.0
24/01:30pm 28.9 29.3 19.8 58 5.9 NE 17 24 9 13 - - 0.0
24/01:00pm 29.2 29.8 19.5 56 6.3 E 15 22 8 12 - - 0.0
24/12:30pm 28.9 29.4 20.1 59 5.8 E 17 22 9 12 - - 0.0
24/12:00pm 29.2 30.6 20.4 59 5.8 E 13 20 7 11 - - 0.0
24/11:30am 29.2 31.3 20.1 58 6.0 ENE 9 17 5 9 - - 0.0
24/11:00am 29.0 31.1 20.2 59 5.8 NNE 9 15 5 8 - - 0.0
24/10:30am 28.1 30.1 19.9 61 5.4 NE 9 17 5 9 - - 0.0
24/10:00am 27.8 30.6 20.9 66 4.6 ENE 7 15 4 8 - - 0.0
24/09:30am 26.9 29.7 20.5 68 4.2 NNE 6 9 3 5 - - 0.0
24/09:00am 26.0 28.5 20.3 71 3.7 NE 7 15 4 8 - - 0.0
24/08:30am 25.1 27.9 20.4 75 3.1 NNE 6 11 3 6 - - 0.0
24/08:00am 24.1 26.6 20.2 79 2.5 NNE 7 15 4 8 - - 0.0
24/07:30am 23.5 27.3 21.0 86 1.6 E 2 6 1 3 - - 0.0
24/07:00am 22.1 25.8 20.7 92 0.9 NE 2 6 1 3 - - 0.0
24/06:30am 21.1 24.9 20.1 94 0.6 CALM 0 0 0 0 - - 0.0
24/06:00am 21.2 24.9 20.0 93 0.8 CALM 0 0 0 0 - - 0.0
24/05:30am 21.3 25.1 20.1 93 0.8 CALM 0 0 0 0 - - 0.0
24/05:00am 21.6 25.1 20.4 93 0.8 NE 2 4 1 2 - - 0.0
24/04:30am 21.7 25.3 20.5 93 0.8 NE 2 4 1 2 - - 0.0
24/04:00am 21.8 25.7 20.4 92 0.9 CALM 0 4 0 2 - - 0.0
24/03:30am 21.9 26.0 20.7 93 0.8 CALM 0 0 0 0 - - 0.0
24/03:00am 21.9 25.9 20.5 92 0.9 CALM 0 0 0 0 - - 0.0
24/02:30am 22.2 26.2 20.5 90 1.1 CALM 0 0 0 0 - - 0.0
24/02:00am 22.4 26.5 20.7 90 1.1 CALM 0 0 0 0 - - 0.0
24/01:30am 22.6 26.8 20.9 90 1.1 CALM 0 2 0 1 - - 0.0
24/01:00am 22.6 26.0 20.9 90 1.1 E 4 6 2 3 - - 0.0
24/12:30am 22.8 25.8 20.9 89 1.2 NE 6 9 3 5 - - 0.0
24/12:00am 22.9 26.1 20.6 87 1.5 NE 4 6 2 3 - - 0.0
 
Date/Time
EDT
Tmp

°C
App
Tmp
°C
Dew
Point
°C
Rel
Hum
%
Delta-T

°C
Wind Press
QNH
hPa
Press
MSL
hPa
Rain
since
9 am
mm
Dir
 
Spd
km/h
Gust
km/h
Spd
kts
Gust
kts
23/11:30pm 23.4 27.5 20.7 85 1.8 CALM 0 0 0 0 - - 0.0
23/11:00pm 23.8 27.5 20.7 83 2.0 NNE 2 6 1 3 - - 0.0
23/10:30pm 24.0 27.0 20.9 83 2.0 NE 6 13 3 7 - - 0.0
23/10:00pm 23.9 27.0 21.0 84 1.9 NE 6 9 3 5 - - 0.0
23/09:30pm 24.2 27.2 20.9 82 2.2 NE 6 11 3 6 - - 0.0
23/09:00pm 24.4 27.4 20.9 81 2.3 ENE 6 11 3 6 - - 0.0
23/08:30pm 24.6 27.0 20.9 80 2.4 NE 9 15 5 8 - - 0.0
23/08:00pm 24.8 27.0 21.1 80 2.4 ENE 11 17 6 9 - - 0.0
23/07:30pm 25.3 27.4 21.0 77 2.8 ENE 11 15 6 8 - - 0.0
23/07:00pm 26.0 28.1 21.0 74 3.3 NE 11 19 6 10 - - 0.0
23/06:30pm 26.4 27.2 20.7 71 3.7 NE 17 26 9 14 - - 0.0
23/06:00pm 26.9 27.5 21.0 70 3.9 ENE 19 35 10 19 - - 0.0
23/05:30pm 27.6 28.5 20.9 67 4.4 ENE 17 30 9 16 - - 0.0
23/05:00pm 28.2 28.7 21.2 65 4.7 ENE 20 35 11 19 - - 0.0
23/04:30pm 29.0 30.7 21.7 64 4.9 ENE 15 28 8 15 - - 0.0
23/04:00pm 28.4 29.0 21.4 66 4.7 ENE 20 30 11 16 - - 0.0
23/03:30pm 28.5 29.2 21.5 66 4.7 ENE 20 30 11 16 - - 0.0
23/03:00pm 28.6 28.9 21.6 66 4.7 ENE 22 33 12 18 - - 0.0
23/02:30pm 28.9 29.7 21.7 65 4.8 ENE 20 32 11 17 - - 0.0
23/02:00pm 28.6 28.8 21.4 65 4.8 ENE 22 30 12 16 - - 0.0
23/01:30pm 29.7 31.6 22.7 66 4.8 ENE 17 28 9 15 - - 0.0
23/01:00pm 29.0 30.9 22.0 66 4.7 ENE 15 24 8 13 - - 0.0
23/12:30pm 29.3 32.1 22.3 66 4.7 NE 11 24 6 13 - - 0.0
23/12:00pm 28.2 30.2 21.5 67 4.5 NE 13 20 7 11 - - 0.0
23/11:30am 28.3 30.6 21.3 65 4.7 NE 11 17 6 9 - - 0.0
23/11:00am 27.0 28.9 21.3 71 3.8 ENE 13 17 7 9 - - 0.0
23/10:30am 26.7 28.5 20.3 68 4.2 NE 11 20 6 11 - - 0.0
23/10:00am 26.9 29.4 21.0 70 3.9 NNE 9 17 5 9 - - 0.0
23/09:30am 26.3 28.7 20.8 71 3.6 NNE 9 17 5 9 - - 0.0
23/09:00am 25.3 27.1 20.3 74 3.3 N 11 15 6 8 - - 0.0
23/08:30am 24.9 27.7 20.4 76 2.9 N 6 11 3 6 - - 0.0
23/08:00am 24.1 26.2 20.2 79 2.5 NE 9 19 5 10 - - 0.0
23/07:30am 22.8 25.9 20.3 86 1.6 NE 4 11 2 6 - - 0.0
23/07:00am 22.1 26.3 20.9 93 0.8 CALM 0 0 0 0 - - 0.0
23/06:30am 21.3 25.2 20.3 94 0.6 CALM 0 0 0 0 - - 0.0
23/06:00am 21.3 25.3 20.5 95 0.5 CALM 0 0 0 0 - - 0.0
23/05:30am 21.0 24.6 19.8 93 0.8 CALM 0 0 0 0 - - 0.0
23/05:00am 21.3 25.0 19.9 92 0.9 CALM 0 0 0 0 - - 0.0
23/04:30am 21.7 25.5 20.2 91 1.0 CALM 0 0 0 0 - - 0.0
23/04:00am 22.1 26.0 20.4 90 1.1 CALM 0 2 0 1 - - 0.0
23/03:30am 22.3 25.5 20.4 89 1.2 N 4 6 2 3 - - 0.0
23/03:00am 22.2 25.9 20.7 91 1.0 N 2 6 1 3 - - 0.0
23/02:30am 22.1 26.1 20.6 91 1.0 CALM 0 4 0 2 - - 0.0
23/02:00am 22.2 25.2 20.8 92 0.9 ENE 6 7 3 4 - - 0.0
23/01:30am 22.3 25.6 20.8 91 1.0 NE 4 6 2 3 - - 0.0
23/01:00am 22.3 25.3 20.9 92 0.9 ENE 6 9 3 5 - - 0.0
23/12:30am 22.5 25.6 21.1 92 0.9 ENE 6 9 3 5 - - 0.0
23/12:00am 22.5 26.1 21.3 93 0.8 ENE 4 9 2 5 - - 0.0
 
Date/Time
EDT
Tmp

°C
App
Tmp
°C
Dew
Point
°C
Rel
Hum
%
Delta-T

°C
Wind Press
QNH
hPa
Press
MSL
hPa
Rain
since
9 am
mm
Dir
 
Spd
km/h
Gust
km/h
Spd
kts
Gust
kts
22/11:30pm 22.6 26.2 21.2 92 0.9 ENE 4 7 2 4 - - 0.0
22/11:00pm 22.7 25.7 21.2 91 1.0 ENE 7 11 4 6 - - 0.0
22/10:30pm 22.6 26.7 20.7 89 1.2 CALM 0 2 0 1 - - 0.0
22/10:00pm 22.7 25.4 20.6 88 1.4 ENE 7 13 4 7 - - 0.0
22/09:30pm 22.9 25.7 20.4 86 1.6 ENE 6 7 3 4 - - 0.0

Latest Capital City Observations: Canberra | Sydney | Melbourne | Brisbane | Adelaide | Perth | Hobart | Darwin

Other Formats:

Comma delimited format used in spreadsheet applications
http://www.bom.gov.au/fwo/IDN60901/IDN60901.94782.axf

JavaScript Object Notation format (JSON) in row-major order
http://www.bom.gov.au/fwo/IDN60901/IDN60901.94782.json